Arcata Airport Arcata,Eureka US
ICAO: KACV
IATA: ACV
Category: Medium
Scheduled Services: Yes

Elevation: 221 ft
TransAlt. 18000 ft.

Airport Communications:
ASOS:118.525
SEATTLE CNTR:124.85
COAST GUARD AIR OPS:34.5
OAKLAND RDO:122.6
CTAF/UNICOM:123

KACV Zoom In..

Runways:

(A) RW 01 length 4501 ft width 150 ft
---- / hdg 13

(B) RW 14 length 6046 ft width 150 ft
---- / hdg 136

(C) RW 19 length 4501 ft width 150 ft
---- / hdg 193

(D) RW 32 length 6046 ft width 150 ft
ILS 109.50 / hdg 316

Location; KACV
Day. 16 / Time. 18.22 Zulu
* Altimeter: 30.02
* Temperature: 14° c. 57.2°f.
* Wind from: 250° Speed 06 kn.
Dewpoint: 13° c.
Visibility: 2 m.
Clouds: Overcast 300 ft.
Conditions: Mist.

KACV 161822Z AUTO 25006KT 2 1/2SM R32/4000VP6000FT BR OVC003 14/13 A3002 RMK AO2 VIS 1V5 T01440128


Wind From 250°
Speed 06 kn.

 
 
jpsmedia.com for Web Design worldairports.se 2018   terms of use